createdAt,value
2022-12-11T00:01:49.148Z,5.09
2022-12-11T00:04:18.506Z,5.08
2022-12-11T00:06:50.814Z,5.10
2022-12-11T00:09:21.697Z,5.10
2022-12-11T00:11:50.697Z,5.08
2022-12-11T00:14:19.905Z,5.09
2022-12-11T00:16:50.194Z,5.10
2022-12-11T00:19:20.090Z,5.13
2022-12-11T00:21:49.636Z,5.15
2022-12-11T00:24:19.109Z,5.16
2022-12-11T00:26:48.655Z,5.19
2022-12-11T00:29:17.805Z,5.26
2022-12-11T00:31:46.791Z,5.33
2022-12-11T00:34:16.028Z,5.35
2022-12-11T00:36:45.150Z,5.35
2022-12-11T00:39:14.543Z,5.34
2022-12-11T00:41:43.800Z,5.33
2022-12-11T00:44:12.892Z,5.31
2022-12-11T00:46:42.155Z,5.31
2022-12-11T00:49:11.356Z,5.31
2022-12-11T00:51:41.157Z,5.31
2022-12-11T00:54:10.437Z,5.28
2022-12-11T00:56:40.102Z,5.25
2022-12-11T00:59:09.280Z,5.25
2022-12-11T01:01:39.493Z,5.26
2022-12-11T01:04:08.665Z,5.26
2022-12-11T01:06:37.652Z,5.26
2022-12-11T01:09:25.318Z,5.25
2022-12-11T01:11:54.183Z,5.24
2022-12-11T01:14:23.499Z,5.24
2022-12-11T01:16:52.704Z,5.21
2022-12-11T01:19:22.846Z,5.20
2022-12-11T01:21:55.163Z,5.16
2022-12-11T01:24:24.428Z,5.14
2022-12-11T01:26:53.426Z,5.15
2022-12-11T01:29:22.366Z,5.15
2022-12-11T01:31:53.756Z,5.13
2022-12-11T01:34:23.628Z,5.12
2022-12-11T01:36:53.219Z,5.12
2022-12-11T01:39:22.460Z,5.11
2022-12-11T01:42:01.956Z,5.10
2022-12-11T01:44:31.172Z,5.13
2022-12-11T01:47:00.411Z,5.12
2022-12-11T01:49:30.286Z,5.15
2022-12-11T01:52:21.856Z,5.14
2022-12-11T01:54:51.848Z,5.13
2022-12-11T01:57:20.871Z,5.12
2022-12-11T01:59:49.987Z,5.13
2022-12-11T02:02:28.321Z,5.13
2022-12-11T02:04:57.491Z,5.12
2022-12-11T02:07:26.678Z,5.12
2022-12-11T02:09:58.241Z,5.13
2022-12-11T02:12:52.759Z,5.12
2022-12-11T02:15:48.521Z,5.12
2022-12-11T02:18:37.339Z,5.13
2022-12-11T02:21:36.999Z,5.18
2022-12-11T02:24:41.521Z,5.20
2022-12-11T02:27:46.943Z,5.21
2022-12-11T02:30:17.386Z,5.20
2022-12-11T02:32:58.252Z,5.19
2022-12-11T02:35:35.524Z,5.20
2022-12-11T02:38:11.434Z,5.20
2022-12-11T02:40:43.007Z,5.21
2022-12-11T02:43:16.299Z,5.24
2022-12-11T02:45:46.723Z,5.28
2022-12-11T02:48:19.942Z,5.29
2022-12-11T03:04:36.811Z,5.59
2022-12-11T03:07:17.314Z,5.69
2022-12-11T03:09:48.188Z,5.66
2022-12-11T03:12:34.289Z,5.65
2022-12-11T03:15:09.728Z,5.65
2022-12-11T03:18:09.703Z,5.71
2022-12-11T03:20:44.805Z,5.75
2022-12-11T03:23:23.865Z,5.74
2022-12-11T03:26:02.546Z,5.73
2022-12-11T03:28:41.047Z,5.75
2022-12-11T03:31:16.760Z,5.74
2022-12-11T03:33:48.345Z,5.70
2022-12-11T03:36:25.566Z,5.67
2022-12-11T03:39:01.951Z,5.65
2022-12-11T03:41:39.298Z,5.66
2022-12-11T03:44:07.767Z,5.67
2022-12-11T03:46:39.054Z,5.70
2022-12-11T03:49:15.149Z,5.71
2022-12-11T03:51:44.746Z,5.69
2022-12-11T03:54:19.306Z,5.63
2022-12-11T03:56:48.534Z,5.61
2022-12-11T03:59:18.053Z,5.61
2022-12-11T04:01:48.560Z,5.65
2022-12-11T04:04:16.896Z,5.68
2022-12-11T04:06:48.592Z,5.68
2022-12-11T04:09:18.948Z,5.70
2022-12-11T04:11:46.613Z,5.71
2022-12-11T04:14:33.175Z,5.74
2022-12-11T04:17:01.837Z,5.79
2022-12-11T04:19:48.811Z,5.82
2022-12-11T04:22:36.691Z,5.82
2022-12-11T04:25:07.698Z,5.85
2022-12-11T04:27:51.236Z,5.88
2022-12-11T04:30:28.045Z,5.91
2022-12-11T04:32:58.474Z,5.93
2022-12-11T04:35:54.198Z,6.00
2022-12-11T04:38:23.279Z,6.05
2022-12-11T04:41:10.596Z,6.09
2022-12-11T04:43:40.313Z,6.12
2022-12-11T04:46:31.885Z,6.11
2022-12-11T04:49:01.076Z,6.08
2022-12-11T04:51:30.291Z,6.05
2022-12-11T04:53:59.878Z,6.04
2022-12-11T04:56:31.920Z,6.05
2022-12-11T04:59:02.162Z,6.09
2022-12-11T05:01:31.735Z,6.14
2022-12-11T05:04:02.878Z,6.17
2022-12-11T05:06:32.045Z,6.15
2022-12-11T05:09:02.035Z,6.09
2022-12-11T05:11:37.221Z,6.02
2022-12-11T05:14:06.581Z,5.98
2022-12-11T05:16:35.762Z,5.93
2022-12-11T05:19:04.807Z,5.90
2022-12-11T05:21:35.333Z,5.88
2022-12-11T05:24:06.203Z,5.88
2022-12-11T05:26:36.808Z,5.87
2022-12-11T05:29:06.790Z,5.87
2022-12-11T05:31:36.236Z,5.90
2022-12-11T05:34:05.833Z,5.93
2022-12-11T05:36:35.097Z,5.97
2022-12-11T05:39:08.410Z,6.04
2022-12-11T05:41:38.312Z,6.07
2022-12-11T05:44:08.122Z,6.04
2022-12-11T05:46:37.355Z,6.03
2022-12-11T05:49:07.417Z,6.03
2022-12-11T05:51:49.888Z,6.03
2022-12-11T05:54:19.975Z,5.99
2022-12-11T05:56:51.593Z,6.00
2022-12-11T06:02:40.768Z,6.02
2022-12-11T06:05:11.027Z,6.02
2022-12-11T06:07:40.928Z,6.00
2022-12-11T06:10:10.931Z,5.97
2022-12-11T06:12:41.288Z,5.98
2022-12-11T06:15:11.370Z,5.99
2022-12-11T06:17:41.080Z,6.03
2022-12-11T06:20:14.214Z,6.09
2022-12-11T06:22:43.448Z,6.12
2022-12-11T06:25:13.669Z,6.03
2022-12-11T06:27:43.520Z,6.33
2022-12-11T06:30:13.680Z,6.38
2022-12-11T06:32:44.249Z,6.47
2022-12-11T06:35:19.373Z,6.58
2022-12-11T06:37:48.264Z,6.71
2022-12-11T06:40:20.976Z,6.81
2022-12-11T06:42:50.511Z,6.92
2022-12-11T06:45:20.291Z,7.01
2022-12-11T06:47:50.270Z,7.08
2022-12-11T06:50:21.849Z,7.15
2022-12-11T06:52:51.131Z,7.22
2022-12-11T06:55:21.105Z,7.29
2022-12-11T06:57:50.361Z,7.37
2022-12-11T07:00:20.048Z,7.45
2022-12-11T07:02:51.614Z,7.51
2022-12-11T07:05:21.247Z,7.58
2022-12-11T07:07:50.716Z,7.67
2022-12-11T07:10:20.063Z,7.76
2022-12-11T07:12:52.029Z,7.83
2022-12-11T07:15:22.411Z,7.91
2022-12-11T07:17:51.741Z,7.95
2022-12-11T07:20:21.056Z,8.01
2022-12-11T07:22:50.957Z,8.08
2022-12-11T07:25:20.670Z,8.15
2022-12-11T07:27:50.150Z,8.23
2022-12-11T07:30:19.929Z,8.28
2022-12-11T07:32:49.385Z,8.33
2022-12-11T07:35:19.206Z,8.39
2022-12-11T07:37:48.651Z,8.46
2022-12-11T07:40:19.978Z,8.53
2022-12-11T07:42:51.617Z,8.57
2022-12-11T07:45:23.581Z,8.65
2022-12-11T07:47:53.496Z,8.71
2022-12-11T07:50:23.201Z,8.75
2022-12-11T07:52:53.040Z,8.80
2022-12-11T07:55:22.760Z,8.86
2022-12-11T07:57:53.584Z,8.86
2022-12-11T08:00:22.645Z,8.91
2022-12-11T08:02:51.987Z,8.98
2022-12-11T08:05:21.323Z,9.02
2022-12-11T08:07:50.727Z,9.09
2022-12-11T08:10:25.140Z,9.14
2022-12-11T08:12:57.386Z,9.21
2022-12-11T08:15:26.673Z,9.29
2022-12-11T08:18:02.253Z,9.35
2022-12-11T08:20:31.699Z,9.41
2022-12-11T08:23:03.606Z,9.45
2022-12-11T08:25:33.856Z,9.49
2022-12-11T08:28:07.114Z,9.53
2022-12-11T08:30:39.571Z,9.52
2022-12-11T08:33:08.957Z,9.55
2022-12-11T08:35:50.204Z,9.60
2022-12-11T08:38:24.994Z,9.64
2022-12-11T08:40:54.712Z,9.67
2022-12-11T08:43:24.165Z,9.67
2022-12-11T08:45:54.724Z,9.72
2022-12-11T08:48:24.204Z,9.78
2022-12-11T08:50:53.292Z,9.80
2022-12-11T08:53:22.910Z,9.83
2022-12-11T08:55:52.401Z,9.85
2022-12-11T08:58:21.600Z,9.88
2022-12-11T09:00:50.383Z,9.90
2022-12-11T09:03:20.646Z,9.95
2022-12-11T09:05:49.743Z,9.99
2022-12-11T09:08:18.896Z,10.02
2022-12-11T09:10:47.917Z,10.07
2022-12-11T09:13:17.057Z,10.14
2022-12-11T09:15:50.275Z,10.20
2022-12-11T09:18:19.252Z,10.25
2022-12-11T09:20:48.280Z,10.30
2022-12-11T09:23:18.010Z,10.35
2022-12-11T09:25:47.293Z,10.38
2022-12-11T09:28:16.822Z,10.45
2022-12-11T09:30:49.041Z,10.53
2022-12-11T09:33:21.614Z,10.61
2022-12-11T09:36:01.232Z,10.66
2022-12-11T09:38:30.941Z,10.73
2022-12-11T09:41:01.345Z,10.78
2022-12-11T09:43:48.857Z,10.81
2022-12-11T09:46:20.030Z,10.85
2022-12-11T09:48:53.935Z,10.88
2022-12-11T09:51:49.623Z,10.95
2022-12-11T09:54:18.712Z,11.02
2022-12-11T09:57:19.359Z,11.06
2022-12-11T10:00:04.773Z,11.05
2022-12-11T10:03:13.455Z,10.92
2022-12-11T10:06:04.820Z,10.74
2022-12-11T10:09:11.350Z,10.64
2022-12-11T10:11:55.878Z,10.56
2022-12-11T10:14:50.946Z,10.57
2022-12-11T10:17:34.727Z,10.51
2022-12-11T10:20:25.856Z,10.46
2022-12-11T10:22:57.345Z,10.30
2022-12-11T10:26:09.496Z,10.16
2022-12-11T10:28:38.902Z,9.90
2022-12-11T10:31:43.650Z,9.71
2022-12-11T10:34:42.215Z,9.54
2022-12-11T10:37:12.123Z,9.35
2022-12-11T10:39:43.499Z,9.16
2022-12-11T10:42:21.382Z,9.06
2022-12-11T10:45:02.977Z,8.87
2022-12-11T10:47:34.550Z,8.68
2022-12-11T10:50:05.216Z,8.53
2022-12-11T10:52:45.234Z,8.45
2022-12-11T10:55:46.477Z,8.35
2022-12-11T10:58:21.553Z,8.17
2022-12-11T11:01:27.333Z,8.02
2022-12-11T11:04:20.642Z,7.87
2022-12-11T11:07:04.374Z,7.83
2022-12-11T11:09:37.277Z,7.81
2022-12-11T11:12:27.099Z,7.82
2022-12-11T11:15:07.257Z,7.84
2022-12-11T11:17:55.872Z,7.84
2022-12-11T11:20:32.548Z,7.81
2022-12-11T11:23:10.229Z,7.76
2022-12-11T11:25:57.531Z,7.74
2022-12-11T11:28:57.352Z,7.74
2022-12-11T11:31:36.560Z,7.69
2022-12-11T11:34:15.715Z,7.67
2022-12-11T11:36:57.848Z,7.67
2022-12-11T11:39:38.156Z,7.61
2022-12-11T11:42:29.504Z,7.58
2022-12-11T11:45:17.212Z,7.55
2022-12-11T11:48:26.731Z,7.53
2022-12-11T11:50:58.439Z,7.52
2022-12-11T11:53:39.737Z,7.51
2022-12-11T11:56:24.589Z,7.49
2022-12-11T11:59:14.974Z,7.48
2022-12-11T12:01:47.636Z,7.47
2022-12-11T12:04:17.139Z,7.48
2022-12-11T12:07:11.520Z,7.50
2022-12-11T12:10:00.194Z,7.55
2022-12-11T12:12:58.160Z,7.61
2022-12-11T12:15:34.596Z,7.67
2022-12-11T12:18:41.610Z,7.76
2022-12-11T12:21:37.806Z,7.83
2022-12-11T12:24:23.313Z,7.87
2022-12-11T12:27:51.555Z,7.92
2022-12-11T12:30:22.489Z,8.02
2022-12-11T12:33:30.073Z,8.10
2022-12-11T12:36:18.879Z,8.16
2022-12-11T12:38:59.325Z,8.23
2022-12-11T12:42:07.024Z,8.28
2022-12-11T12:45:11.080Z,8.32
2022-12-11T12:47:42.813Z,8.33
2022-12-11T12:50:23.942Z,8.27
2022-12-11T12:52:58.784Z,8.19
2022-12-11T12:55:33.497Z,8.17
2022-12-11T13:01:28.186Z,8.05
2022-12-11T13:04:02.589Z,8.02
2022-12-11T13:06:45.300Z,8.01
2022-12-11T13:09:17.724Z,7.98
2022-12-11T13:11:53.765Z,7.93
2022-12-11T13:14:37.427Z,7.85
2022-12-11T13:17:28.603Z,7.78
2022-12-11T13:20:33.165Z,7.74
2022-12-11T13:23:20.916Z,7.71
2022-12-11T13:26:09.252Z,7.67
2022-12-11T13:28:43.676Z,7.65
2022-12-11T13:31:17.971Z,7.64
2022-12-11T13:34:01.345Z,7.63
2022-12-11T13:36:44.179Z,7.59
2022-12-11T13:39:47.585Z,7.56
2022-12-11T13:42:35.957Z,7.53
2022-12-11T13:45:28.621Z,7.54
2022-12-11T13:48:00.161Z,7.51
2022-12-11T13:50:36.643Z,7.50
2022-12-11T13:53:08.800Z,7.48
2022-12-11T13:55:38.885Z,7.47
2022-12-11T14:01:54.653Z,7.45
2022-12-11T14:04:25.630Z,7.43
2022-12-11T14:06:58.103Z,7.41
2022-12-11T14:09:28.598Z,7.37
2022-12-11T14:12:27.175Z,7.34
2022-12-11T14:15:03.320Z,7.30
2022-12-11T14:17:35.685Z,7.26
2022-12-11T14:20:10.748Z,7.22
2022-12-11T14:22:40.561Z,7.22
2022-12-11T14:25:27.254Z,7.24
2022-12-11T14:27:57.451Z,7.25
2022-12-11T14:30:30.668Z,7.28
2022-12-11T14:33:04.723Z,7.29
2022-12-11T14:35:40.838Z,7.31
2022-12-11T14:38:44.745Z,7.33
2022-12-11T14:41:31.821Z,7.37
2022-12-11T14:44:07.941Z,7.41
2022-12-11T14:46:44.514Z,7.47
2022-12-11T14:49:42.375Z,7.46
2022-12-11T14:52:23.997Z,7.55
2022-12-11T14:54:57.695Z,7.59
2022-12-11T14:57:34.845Z,7.62
2022-12-11T15:00:09.814Z,7.65
2022-12-11T15:02:39.876Z,7.51
2022-12-11T15:05:20.769Z,7.65
2022-12-11T15:08:02.793Z,7.63
2022-12-11T15:10:41.471Z,7.59
2022-12-11T15:13:10.827Z,7.53
2022-12-11T15:15:47.800Z,7.46
2022-12-11T15:18:26.114Z,7.33
2022-12-11T15:21:03.968Z,7.16
2022-12-11T15:24:00.678Z,7.00
2022-12-11T15:26:48.833Z,6.82
2022-12-11T15:29:31.131Z,6.57
2022-12-11T15:32:26.273Z,6.37
2022-12-11T15:35:01.469Z,6.25
2022-12-11T15:37:38.821Z,6.17
2022-12-11T15:40:09.743Z,6.11
2022-12-11T15:42:42.608Z,6.04
2022-12-11T15:45:20.520Z,5.99
2022-12-11T15:47:52.665Z,5.97
2022-12-11T15:50:36.640Z,5.92
2022-12-11T15:53:08.111Z,5.87
2022-12-11T15:55:38.173Z,5.83
2022-12-11T15:58:23.298Z,5.82
2022-12-11T16:00:56.069Z,5.78
2022-12-11T16:03:25.278Z,5.74
2022-12-11T16:05:54.407Z,5.69
2022-12-11T16:08:24.839Z,5.63
2022-12-11T16:10:55.808Z,5.57
2022-12-11T16:13:25.307Z,5.47
2022-12-11T16:15:55.622Z,5.40
2022-12-11T16:18:26.233Z,5.35
2022-12-11T16:20:55.127Z,5.30
2022-12-11T16:23:29.722Z,5.27
2022-12-11T16:26:06.634Z,5.26
2022-12-11T16:28:35.779Z,5.23
2022-12-11T16:31:10.958Z,5.19
2022-12-11T16:33:40.598Z,5.15
2022-12-11T16:36:22.109Z,5.12
2022-12-11T16:38:53.805Z,5.07
2022-12-11T16:41:24.305Z,5.04
2022-12-11T16:43:54.742Z,5.02
2022-12-11T16:46:24.727Z,5.01
2022-12-11T16:48:54.928Z,5.00
2022-12-11T16:51:24.851Z,4.98
2022-12-11T16:53:54.871Z,4.98
2022-12-11T16:56:27.293Z,4.98
2022-12-11T16:58:57.452Z,4.97
2022-12-11T17:01:28.499Z,4.97
2022-12-11T17:03:59.347Z,4.97
2022-12-11T17:06:28.722Z,4.97
2022-12-11T17:08:58.257Z,4.95
2022-12-11T17:11:27.336Z,4.91
2022-12-11T17:13:59.483Z,4.84
2022-12-11T17:16:35.672Z,4.77
2022-12-11T17:19:07.533Z,4.71
2022-12-11T17:21:36.449Z,4.67
2022-12-11T17:24:06.451Z,4.61
2022-12-11T17:26:37.438Z,4.54
2022-12-11T17:29:06.408Z,4.49
2022-12-11T17:31:35.441Z,4.41
2022-12-11T17:34:05.200Z,4.37
2022-12-11T17:36:35.377Z,4.34
2022-12-11T17:39:06.092Z,4.32
2022-12-11T17:41:37.538Z,4.29
2022-12-11T17:44:06.672Z,4.27
2022-12-11T17:46:36.637Z,4.25
2022-12-11T17:49:07.018Z,4.22
2022-12-11T17:51:36.520Z,4.19
2022-12-11T17:54:05.834Z,4.16
2022-12-11T17:56:36.364Z,4.15
2022-12-11T17:59:06.638Z,4.11
2022-12-11T18:01:38.272Z,4.09
2022-12-11T18:04:08.166Z,4.08
2022-12-11T18:06:37.831Z,4.05
2022-12-11T18:09:07.142Z,4.02
2022-12-11T18:11:38.807Z,3.99
2022-12-11T18:14:10.053Z,3.95
2022-12-11T18:16:45.758Z,3.93
2022-12-11T18:19:15.894Z,3.87
2022-12-11T18:21:46.304Z,3.94
2022-12-11T18:24:15.595Z,3.94
2022-12-11T18:26:45.571Z,3.95
2022-12-11T18:29:15.299Z,3.96
2022-12-11T18:31:44.615Z,3.98
2022-12-11T18:34:13.688Z,3.97
2022-12-11T18:36:42.485Z,3.95
2022-12-11T18:39:11.926Z,3.91
2022-12-11T18:41:45.636Z,3.90
2022-12-11T18:44:28.959Z,3.91
2022-12-11T18:46:58.433Z,3.90
2022-12-11T18:49:29.610Z,3.90
2022-12-11T18:51:59.106Z,3.88
2022-12-11T18:54:28.550Z,3.87
2022-12-11T18:56:57.820Z,3.82
2022-12-11T18:59:28.247Z,3.77
2022-12-11T19:01:59.131Z,3.73
2022-12-11T19:04:30.188Z,3.63
2022-12-11T19:07:01.177Z,3.52
2022-12-11T19:09:37.776Z,3.43
2022-12-11T19:12:08.421Z,3.38
2022-12-11T19:14:37.759Z,3.35
2022-12-11T19:17:06.857Z,3.30
2022-12-11T19:19:37.046Z,3.30
2022-12-11T19:22:07.947Z,3.30
2022-12-11T19:24:37.485Z,3.29
2022-12-11T19:27:13.300Z,3.31
2022-12-11T19:29:42.695Z,3.31
2022-12-11T19:32:14.447Z,3.33
2022-12-11T19:34:44.038Z,3.35
2022-12-11T19:37:15.876Z,3.36
2022-12-11T19:39:55.857Z,3.38
2022-12-11T19:42:27.062Z,3.39
2022-12-11T19:44:56.059Z,3.39
2022-12-11T19:47:25.041Z,3.38
2022-12-11T19:49:53.999Z,3.37
2022-12-11T19:52:23.265Z,3.40
2022-12-11T19:54:52.152Z,3.43
2022-12-11T19:57:20.979Z,3.43
2022-12-11T19:59:55.392Z,3.43
2022-12-11T20:02:45.320Z,3.45
2022-12-11T20:05:14.669Z,3.46
2022-12-11T20:07:47.101Z,3.47
2022-12-11T20:10:15.934Z,3.48
2022-12-11T20:12:44.758Z,3.48
2022-12-11T20:15:21.507Z,3.47
2022-12-11T20:17:58.372Z,3.45
2022-12-11T20:20:29.448Z,3.44
2022-12-11T20:23:03.080Z,3.45
2022-12-11T20:25:34.405Z,3.44
2022-12-11T20:28:05.621Z,3.43
2022-12-11T20:30:34.891Z,3.42
2022-12-11T20:33:04.265Z,3.38
2022-12-11T20:35:33.561Z,3.33
2022-12-11T20:38:03.308Z,3.29
2022-12-11T20:40:33.318Z,3.24
2022-12-11T20:43:02.731Z,3.20
2022-12-11T20:45:32.273Z,3.16
2022-12-11T20:48:04.203Z,3.10
2022-12-11T20:50:33.463Z,3.02
2022-12-11T20:53:02.152Z,2.97
2022-12-11T20:55:31.145Z,2.93
2022-12-11T20:58:00.405Z,2.78
2022-12-11T21:03:56.124Z,2.69
2022-12-11T21:06:30.731Z,2.57
2022-12-11T21:09:00.812Z,2.47
2022-12-11T21:11:28.798Z,2.34
2022-12-11T21:13:56.744Z,2.18
2022-12-11T21:21:40.193Z,1.90
2022-12-11T21:24:20.316Z,1.83
2022-12-11T21:26:51.790Z,1.78
2022-12-11T21:29:21.010Z,1.73
2022-12-11T21:31:51.576Z,1.69
2022-12-11T21:34:28.501Z,1.64
2022-12-11T21:36:57.535Z,1.62
2022-12-11T21:39:36.054Z,1.61
2022-12-11T21:42:08.349Z,1.61
2022-12-11T21:47:28.013Z,1.56
2022-12-11T21:49:56.665Z,1.54
2022-12-11T21:52:25.517Z,1.54
2022-12-11T21:54:54.514Z,1.49
2022-12-11T21:57:26.501Z,1.41
2022-12-11T21:59:57.137Z,1.40
2022-12-11T22:02:25.810Z,1.39
2022-12-11T22:04:54.774Z,1.38
2022-12-11T22:07:23.998Z,1.32
2022-12-11T22:09:53.075Z,1.28
2022-12-11T22:12:26.546Z,1.25
2022-12-11T22:14:55.331Z,1.20
2022-12-11T22:17:24.827Z,1.14
2022-12-11T22:19:53.820Z,1.10
2022-12-11T22:22:22.887Z,1.05
2022-12-11T22:24:52.125Z,1.00
2022-12-11T22:27:23.898Z,0.94
2022-12-11T22:29:56.360Z,0.86
2022-12-11T22:32:27.838Z,0.75
2022-12-11T22:34:58.714Z,0.68
2022-12-11T22:37:29.481Z,0.62
2022-12-11T22:39:59.046Z,0.57
2022-12-11T22:42:28.548Z,0.51
2022-12-11T22:44:57.992Z,0.47
2022-12-11T22:47:27.437Z,0.43
2022-12-11T22:49:56.661Z,0.39
2022-12-11T22:52:26.854Z,0.39
2022-12-11T22:54:56.126Z,0.37
2022-12-11T22:57:25.557Z,0.37
2022-12-11T22:59:54.658Z,0.36
2022-12-11T23:02:24.915Z,0.34
2022-12-11T23:04:56.274Z,0.30
2022-12-11T23:07:26.448Z,0.27
2022-12-11T23:09:55.650Z,0.23
2022-12-11T23:12:25.044Z,0.20
2022-12-11T23:14:53.989Z,0.15
2022-12-11T23:17:23.018Z,0.09
2022-12-11T23:19:52.027Z,0.09
2022-12-11T23:22:24.337Z,0.07
2022-12-11T23:24:55.914Z,0.04
2022-12-11T23:27:24.942Z,0.03
2022-12-11T23:29:55.733Z,0.02
2022-12-11T23:32:24.988Z,0.02
2022-12-11T23:34:54.180Z,0.01
2022-12-11T23:37:23.111Z,-0.00
2022-12-11T23:39:53.652Z,0.01
2022-12-11T23:42:31.596Z,0.00
2022-12-11T23:45:02.998Z,0.02
2022-12-11T23:47:37.930Z,0.03
2022-12-11T23:50:08.517Z,0.05
2022-12-11T23:52:42.692Z,0.05
2022-12-11T23:55:19.255Z,0.06
2022-12-11T23:57:53.821Z,0.07
